createdAt,value
2022-10-26T00:00:50.654Z,5.63
2022-10-26T00:03:17.388Z,1.30
2022-10-26T00:05:44.212Z,7.88
2022-10-26T00:08:11.007Z,4.35
2022-10-26T00:10:38.357Z,2.35
2022-10-26T00:13:05.355Z,6.68
2022-10-26T00:15:32.036Z,7.32
2022-10-26T00:17:58.719Z,2.97
2022-10-26T00:20:25.447Z,12.27
2022-10-26T00:22:52.096Z,5.78
2022-10-26T00:25:18.760Z,8.38
2022-10-26T00:27:45.428Z,3.90
2022-10-26T00:30:12.249Z,6.05
2022-10-26T00:32:41.853Z,10.98
2022-10-26T00:35:21.226Z,7.43
2022-10-26T00:37:53.930Z,5.15
2022-10-26T00:40:20.601Z,6.13
2022-10-26T00:42:47.439Z,3.63
2022-10-26T00:45:21.163Z,4.35
2022-10-26T00:47:57.440Z,3.97
2022-10-26T00:50:53.642Z,7.60
2022-10-26T00:53:20.636Z,3.63
2022-10-26T00:55:48.825Z,3.00
2022-10-26T00:58:15.496Z,8.90
2022-10-26T01:00:42.493Z,2.83
2022-10-26T01:03:09.763Z,2.40
2022-10-26T01:05:38.105Z,8.43
2022-10-26T01:08:05.107Z,5.30
2022-10-26T01:10:31.765Z,7.65
2022-10-26T01:12:58.692Z,3.38
2022-10-26T01:15:36.102Z,6.28
2022-10-26T01:18:10.765Z,5.25
2022-10-26T01:20:52.846Z,7.20
2022-10-26T01:23:22.327Z,7.37
2022-10-26T01:26:16.535Z,9.35
2022-10-26T01:28:46.495Z,1.95
2022-10-26T01:31:14.502Z,0.77
2022-10-26T01:33:57.864Z,4.28
2022-10-26T01:36:40.087Z,5.75
2022-10-26T01:39:06.772Z,9.93
2022-10-26T01:41:39.386Z,2.60
2022-10-26T01:44:13.813Z,3.80
2022-10-26T01:46:42.922Z,7.05
2022-10-26T01:49:11.233Z,6.75
2022-10-26T01:51:39.124Z,8.02
2022-10-26T01:54:05.846Z,7.22
2022-10-26T01:56:34.678Z,7.43
2022-10-26T01:59:31.140Z,6.00
2022-10-26T02:02:19.686Z,2.15
2022-10-26T02:05:15.137Z,6.45
2022-10-26T02:07:55.919Z,10.60
2022-10-26T02:10:29.193Z,6.93
2022-10-26T02:13:01.831Z,5.20
2022-10-26T02:15:37.501Z,4.72
2022-10-26T02:18:20.430Z,5.68
2022-10-26T02:23:15.228Z,4.78
2022-10-26T02:25:45.864Z,4.32
2022-10-26T02:28:14.309Z,5.38
2022-10-26T02:30:41.059Z,3.28
2022-10-26T02:33:07.801Z,3.92
2022-10-26T02:35:35.485Z,5.40
2022-10-26T02:38:05.044Z,6.85
2022-10-26T02:40:32.268Z,1.60
2022-10-26T02:43:00.876Z,3.67
2022-10-26T02:45:30.717Z,9.55
2022-10-26T02:47:57.388Z,4.80
2022-10-26T02:50:27.447Z,1.67
2022-10-26T02:53:18.807Z,1.83
2022-10-26T02:55:49.647Z,5.20
2022-10-26T02:58:28.426Z,4.45
2022-10-26T03:00:55.182Z,3.92
2022-10-26T03:03:21.865Z,4.50
2022-10-26T03:05:48.553Z,8.07
2022-10-26T03:08:15.282Z,7.68
2022-10-26T03:10:43.916Z,2.63
2022-10-26T03:13:10.970Z,7.90
2022-10-26T03:15:37.725Z,2.35
2022-10-26T03:18:04.663Z,8.80
2022-10-26T03:20:31.511Z,5.53
2022-10-26T03:22:58.208Z,13.35
2022-10-26T03:25:25.163Z,3.75
2022-10-26T03:28:01.993Z,6.60
2022-10-26T03:30:28.843Z,10.45
2022-10-26T03:32:55.627Z,3.85
2022-10-26T03:35:22.334Z,1.80
2022-10-26T03:37:49.231Z,6.80
2022-10-26T03:40:16.140Z,5.30
2022-10-26T03:42:42.784Z,3.95
2022-10-26T03:45:09.979Z,3.28
2022-10-26T03:47:46.259Z,9.65
2022-10-26T03:50:13.731Z,6.60
2022-10-26T03:52:40.655Z,6.20
2022-10-26T03:55:08.003Z,10.40
2022-10-26T03:57:34.751Z,6.80
2022-10-26T04:00:01.410Z,8.30
2022-10-26T04:02:28.039Z,6.93
2022-10-26T04:04:54.911Z,7.22
2022-10-26T04:07:21.565Z,9.52
2022-10-26T04:09:48.227Z,4.70
2022-10-26T04:12:14.955Z,4.68
2022-10-26T04:14:41.612Z,7.03
2022-10-26T04:17:08.339Z,3.03
2022-10-26T04:19:35.023Z,6.30
2022-10-26T04:22:01.666Z,5.07
2022-10-26T04:24:28.350Z,13.57
2022-10-26T04:26:55.077Z,5.68
2022-10-26T04:29:21.734Z,11.45
2022-10-26T04:31:48.615Z,14.02
2022-10-26T04:34:15.312Z,6.68
2022-10-26T04:36:41.970Z,8.13
2022-10-26T04:39:08.687Z,5.53
2022-10-26T04:41:35.332Z,9.32
2022-10-26T04:44:01.999Z,5.45
2022-10-26T04:46:28.714Z,14.07
2022-10-26T04:48:55.395Z,13.32
2022-10-26T04:51:22.035Z,7.05
2022-10-26T04:53:48.731Z,7.35
2022-10-26T04:56:15.384Z,7.35
2022-10-26T04:58:42.126Z,17.48
2022-10-26T05:01:08.908Z,11.35
2022-10-26T05:03:35.681Z,8.63
2022-10-26T05:06:02.400Z,8.18
2022-10-26T05:08:29.176Z,25.27
2022-10-26T05:10:55.837Z,14.88
2022-10-26T05:13:22.620Z,3.78
2022-10-26T05:15:52.561Z,10.30
2022-10-26T05:18:19.216Z,6.55
2022-10-26T05:20:45.892Z,7.15
2022-10-26T05:23:12.565Z,9.15
2022-10-26T05:25:39.259Z,18.23
2022-10-26T05:28:07.530Z,17.27
2022-10-26T05:30:34.308Z,12.13
2022-10-26T05:33:01.518Z,34.92
2022-10-26T05:35:28.254Z,6.55
2022-10-26T05:37:55.073Z,8.00
2022-10-26T05:40:21.980Z,5.15
2022-10-26T05:42:48.838Z,15.95
2022-10-26T05:45:15.691Z,16.17
2022-10-26T05:47:42.940Z,12.32
2022-10-26T05:50:09.930Z,9.65
2022-10-26T05:52:43.655Z,9.80
2022-10-26T05:55:11.410Z,27.95
2022-10-26T05:57:38.562Z,7.45
2022-10-26T06:00:10.034Z,15.90
2022-10-26T06:02:36.743Z,16.50
2022-10-26T06:05:04.640Z,6.13
2022-10-26T06:07:31.723Z,17.17
2022-10-26T06:09:58.638Z,27.17
2022-10-26T06:12:25.552Z,7.53
2022-10-26T06:14:52.617Z,36.97
2022-10-26T06:17:37.179Z,15.68
2022-10-26T06:20:16.015Z,12.73
2022-10-26T06:23:28.908Z,34.13
2022-10-26T06:26:07.492Z,7.53
2022-10-26T06:28:50.017Z,23.45
2022-10-26T06:31:17.658Z,15.52
2022-10-26T06:33:44.321Z,16.92
2022-10-26T06:36:21.492Z,29.15
2022-10-26T06:38:49.204Z,7.57
2022-10-26T06:41:16.015Z,32.95
2022-10-26T06:43:43.114Z,32.45
2022-10-26T06:46:40.581Z,26.80
2022-10-26T06:49:27.722Z,16.88
2022-10-26T06:52:05.335Z,3.80
2022-10-26T06:54:52.650Z,42.92
2022-10-26T06:57:20.934Z,28.83
2022-10-26T06:59:51.085Z,29.98
2022-10-26T07:02:18.059Z,26.90
2022-10-26T07:04:44.875Z,13.95
2022-10-26T07:07:12.707Z,24.52
2022-10-26T07:09:39.437Z,19.00
2022-10-26T07:12:06.399Z,6.80
2022-10-26T07:14:33.132Z,21.10
2022-10-26T07:16:59.831Z,24.23
2022-10-26T07:19:26.539Z,7.18
2022-10-26T07:21:56.732Z,13.55
2022-10-26T07:24:23.695Z,9.23
2022-10-26T07:26:50.384Z,38.63
2022-10-26T07:29:17.102Z,20.73
2022-10-26T07:31:44.104Z,16.08
2022-10-26T07:34:10.833Z,19.00
2022-10-26T07:36:37.513Z,10.88
2022-10-26T07:39:04.484Z,17.20
2022-10-26T07:41:31.218Z,11.20
2022-10-26T07:43:57.988Z,28.60
2022-10-26T07:46:24.808Z,12.02
2022-10-26T07:48:51.538Z,24.50
2022-10-26T07:51:18.255Z,8.95
2022-10-26T07:53:45.656Z,4.93
2022-10-26T07:56:12.396Z,22.42
2022-10-26T07:58:39.171Z,37.83
2022-10-26T08:01:07.584Z,19.52
2022-10-26T08:03:34.358Z,27.25
2022-10-26T08:06:01.101Z,10.60
2022-10-26T08:08:27.841Z,22.45
2022-10-26T08:10:54.531Z,11.82
2022-10-26T08:13:21.229Z,10.20
2022-10-26T08:15:47.931Z,15.00
2022-10-26T08:18:14.707Z,25.50
2022-10-26T08:20:41.480Z,18.83
2022-10-26T08:23:08.195Z,13.77
2022-10-26T08:25:35.028Z,22.75
2022-10-26T08:28:04.958Z,34.17
2022-10-26T08:30:31.952Z,22.05
2022-10-26T08:33:05.753Z,17.92
2022-10-26T08:35:32.770Z,33.85
2022-10-26T08:37:59.595Z,5.68
2022-10-26T08:40:31.401Z,18.50
2022-10-26T08:43:07.457Z,22.63
2022-10-26T08:45:37.293Z,19.98
2022-10-26T08:48:06.778Z,13.57
2022-10-26T08:50:37.106Z,20.35
2022-10-26T08:53:47.589Z,13.18
2022-10-26T08:56:25.340Z,13.20
2022-10-26T08:59:04.756Z,14.88
2022-10-26T09:01:31.676Z,14.18
2022-10-26T09:03:58.711Z,7.97
2022-10-26T09:06:37.503Z,9.45
2022-10-26T09:09:09.724Z,10.18
2022-10-26T09:11:40.049Z,11.77
2022-10-26T09:14:32.125Z,20.42
2022-10-26T09:17:28.534Z,28.48
2022-10-26T09:20:32.802Z,12.00
2022-10-26T09:23:47.884Z,18.85
2022-10-26T09:26:15.554Z,24.02
2022-10-26T09:28:42.383Z,20.38
2022-10-26T09:31:12.063Z,27.90
2022-10-26T09:33:39.483Z,14.75
2022-10-26T09:36:24.312Z,6.65
2022-10-26T09:38:56.625Z,27.30
2022-10-26T09:41:32.035Z,13.68
2022-10-26T09:44:23.192Z,23.42
2022-10-26T09:47:01.322Z,36.20
2022-10-26T09:49:49.652Z,38.63
2022-10-26T09:52:16.600Z,23.30
2022-10-26T09:54:43.362Z,23.88
2022-10-26T09:57:10.060Z,19.27
2022-10-26T09:59:39.096Z,9.52
2022-10-26T10:02:34.948Z,15.18
2022-10-26T10:05:01.786Z,5.65
2022-10-26T10:07:28.473Z,22.77
2022-10-26T10:10:22.025Z,10.50
2022-10-26T10:12:50.160Z,33.30
2022-10-26T10:15:24.783Z,18.67
2022-10-26T10:17:53.231Z,10.10
2022-10-26T10:20:21.953Z,22.75
2022-10-26T10:23:18.891Z,23.88
2022-10-26T10:25:45.552Z,22.98
2022-10-26T10:28:22.629Z,7.90
2022-10-26T10:30:53.563Z,19.83
2022-10-26T10:33:20.285Z,16.30
2022-10-26T10:35:51.018Z,31.85
2022-10-26T10:38:19.211Z,26.85
2022-10-26T10:40:53.782Z,19.00
2022-10-26T10:43:20.503Z,8.88
2022-10-26T10:45:48.074Z,13.90
2022-10-26T10:48:22.311Z,50.97
2022-10-26T10:51:02.810Z,17.98
2022-10-26T10:53:49.777Z,24.45
2022-10-26T10:56:19.438Z,12.48
2022-10-26T10:58:51.896Z,28.25
2022-10-26T11:04:17.512Z,18.08
2022-10-26T11:06:44.165Z,35.47
2022-10-26T11:09:15.870Z,19.00
2022-10-26T11:11:55.816Z,19.05
2022-10-26T11:14:33.239Z,38.58
2022-10-26T11:17:14.887Z,18.67
2022-10-26T11:20:12.564Z,7.10
2022-10-26T11:22:56.513Z,8.23
2022-10-26T11:25:27.150Z,22.00
2022-10-26T11:27:59.853Z,20.13
2022-10-26T11:30:26.507Z,20.67
2022-10-26T11:33:40.964Z,14.95
2022-10-26T11:36:17.279Z,14.23
2022-10-26T11:39:13.021Z,13.43
2022-10-26T11:41:48.384Z,16.80
2022-10-26T11:44:25.352Z,9.15
2022-10-26T11:46:55.621Z,20.35
2022-10-26T11:49:40.673Z,14.38
2022-10-26T11:52:20.360Z,12.70
2022-10-26T11:54:58.486Z,11.30
2022-10-26T11:57:25.223Z,13.23
2022-10-26T12:00:13.115Z,14.82
2022-10-26T12:05:16.118Z,23.02
2022-10-26T12:07:47.701Z,15.13
2022-10-26T12:10:23.831Z,6.47
2022-10-26T12:13:05.774Z,8.40
2022-10-26T12:18:56.683Z,21.60
2022-10-26T12:21:28.276Z,9.50
2022-10-26T12:23:56.744Z,7.05
2022-10-26T12:26:23.464Z,31.45
2022-10-26T12:29:13.883Z,19.30
2022-10-26T12:31:41.190Z,9.00
2022-10-26T12:34:14.755Z,12.05
2022-10-26T12:36:56.762Z,26.35
2022-10-26T12:39:30.166Z,5.32
2022-10-26T12:41:57.845Z,13.32
2022-10-26T12:44:36.882Z,26.50
2022-10-26T12:47:04.437Z,18.23
2022-10-26T12:50:02.202Z,16.38
2022-10-26T12:52:32.771Z,22.42
2022-10-26T12:55:38.106Z,23.80
2022-10-26T12:58:19.772Z,22.08
2022-10-26T13:01:11.993Z,18.53
2022-10-26T13:03:47.728Z,54.10
2022-10-26T13:06:37.829Z,12.70
2022-10-26T13:09:34.161Z,14.88
2022-10-26T13:12:02.194Z,26.27
2022-10-26T13:14:35.803Z,34.72
2022-10-26T13:17:04.260Z,10.70
2022-10-26T13:19:47.519Z,16.10
2022-10-26T13:22:23.301Z,11.43
2022-10-26T13:24:55.246Z,16.48
2022-10-26T13:27:23.553Z,18.63
2022-10-26T13:30:05.573Z,18.45
2022-10-26T13:32:36.110Z,7.13
2022-10-26T13:35:02.895Z,10.30
2022-10-26T13:37:31.862Z,10.25
2022-10-26T13:39:58.675Z,11.10
2022-10-26T13:42:26.987Z,25.83
2022-10-26T13:44:54.507Z,23.27
2022-10-26T13:47:28.292Z,14.25
2022-10-26T13:49:56.896Z,14.18
2022-10-26T13:52:36.885Z,17.80
2022-10-26T13:55:08.209Z,13.23
2022-10-26T13:57:45.235Z,24.20
2022-10-26T14:00:20.723Z,22.80
2022-10-26T14:02:47.452Z,19.35
2022-10-26T14:05:16.088Z,29.75
2022-10-26T14:07:45.851Z,17.77
2022-10-26T14:10:40.521Z,8.88
2022-10-26T14:13:08.119Z,18.15
2022-10-26T14:15:34.804Z,13.93
2022-10-26T14:18:01.853Z,20.75
2022-10-26T14:20:29.158Z,16.55
2022-10-26T14:22:55.891Z,16.00
2022-10-26T14:25:35.687Z,37.78
2022-10-26T14:28:26.918Z,8.07
2022-10-26T14:30:53.639Z,11.73
2022-10-26T14:33:24.742Z,20.98
2022-10-26T14:35:51.498Z,45.78
2022-10-26T14:38:25.794Z,10.50
2022-10-26T14:40:53.669Z,7.25
2022-10-26T14:43:22.421Z,17.67
2022-10-26T14:45:50.160Z,22.33
2022-10-26T14:48:31.387Z,21.27
2022-10-26T14:51:10.678Z,15.35
2022-10-26T14:53:40.902Z,23.55
2022-10-26T14:56:29.439Z,19.17
2022-10-26T14:58:56.377Z,26.67
2022-10-26T15:01:23.386Z,14.15
2022-10-26T15:03:55.626Z,21.85
2022-10-26T15:06:33.500Z,23.70
2022-10-26T15:09:00.760Z,26.83
2022-10-26T15:11:27.896Z,54.10
2022-10-26T15:13:55.067Z,23.10
2022-10-26T15:16:23.517Z,42.00
2022-10-26T15:18:55.648Z,30.88
2022-10-26T15:21:28.275Z,8.43
2022-10-26T15:26:21.560Z,17.17
2022-10-26T15:28:48.247Z,21.33
2022-10-26T15:31:15.049Z,27.50
2022-10-26T15:33:43.402Z,26.77
2022-10-26T15:36:13.909Z,29.48
2022-10-26T15:38:40.970Z,10.35
2022-10-26T15:41:37.721Z,31.17
2022-10-26T15:44:11.131Z,17.02
2022-10-26T15:46:37.859Z,36.15
2022-10-26T15:49:05.745Z,18.42
2022-10-26T15:51:32.406Z,34.55
2022-10-26T15:53:59.609Z,30.55
2022-10-26T15:56:26.405Z,45.83
2022-10-26T15:58:56.459Z,30.90
2022-10-26T16:01:24.926Z,21.25
2022-10-26T16:03:52.035Z,30.58
2022-10-26T16:06:22.532Z,37.75
2022-10-26T16:08:50.617Z,24.52
2022-10-26T16:11:17.284Z,41.15
2022-10-26T16:13:44.006Z,19.50
2022-10-26T16:16:14.734Z,41.33
2022-10-26T16:18:41.691Z,27.20
2022-10-26T16:21:17.536Z,22.67
2022-10-26T16:23:46.439Z,29.92
2022-10-26T16:26:13.188Z,20.95
2022-10-26T16:28:39.912Z,50.38
2022-10-26T16:31:08.951Z,28.42
2022-10-26T16:33:35.701Z,47.60
2022-10-26T16:36:02.590Z,40.13
2022-10-26T16:38:30.055Z,23.98
2022-10-26T16:41:10.795Z,40.38
2022-10-26T16:43:39.000Z,43.20
2022-10-26T16:46:23.930Z,29.85
2022-10-26T16:48:50.794Z,45.92
2022-10-26T16:51:19.111Z,24.13
2022-10-26T16:53:49.403Z,30.35
2022-10-26T16:56:20.465Z,35.60
2022-10-26T16:58:47.155Z,26.20
2022-10-26T17:01:14.338Z,29.90
2022-10-26T17:03:41.031Z,40.13
2022-10-26T17:06:07.964Z,22.00
2022-10-26T17:08:35.426Z,44.97
2022-10-26T17:11:06.174Z,30.25
2022-10-26T17:13:32.892Z,25.00
2022-10-26T17:16:08.050Z,57.47
2022-10-26T17:18:34.751Z,53.13
2022-10-26T17:21:01.596Z,35.75
2022-10-26T17:23:28.314Z,54.08
2022-10-26T17:25:54.999Z,18.25
2022-10-26T17:28:21.660Z,49.10
2022-10-26T17:30:48.383Z,36.75
2022-10-26T17:33:15.165Z,21.17
2022-10-26T17:35:41.822Z,22.58
2022-10-26T17:38:08.561Z,17.80
2022-10-26T17:40:35.265Z,17.13
2022-10-26T17:43:02.034Z,27.48
2022-10-26T17:45:28.734Z,39.05
2022-10-26T17:47:55.454Z,31.63
2022-10-26T17:50:22.111Z,14.57
2022-10-26T17:52:48.812Z,22.35
2022-10-26T17:55:15.502Z,19.40
2022-10-26T17:57:42.359Z,21.13
2022-10-26T18:00:09.640Z,27.70
2022-10-26T18:02:36.539Z,32.72
2022-10-26T18:05:06.726Z,31.10
2022-10-26T18:07:34.362Z,37.72
2022-10-26T18:10:19.674Z,44.90
2022-10-26T18:12:48.147Z,48.92
2022-10-26T18:15:15.505Z,14.95
2022-10-26T18:17:42.611Z,18.35
2022-10-26T18:20:09.817Z,16.55
2022-10-26T18:22:36.491Z,13.30
2022-10-26T18:25:03.483Z,19.45
2022-10-26T18:27:30.181Z,36.45
2022-10-26T18:29:56.842Z,34.33
2022-10-26T18:32:23.602Z,19.40
2022-10-26T18:34:50.252Z,23.98
2022-10-26T18:37:16.946Z,20.50
2022-10-26T18:39:43.667Z,20.40
2022-10-26T18:42:10.359Z,36.20
2022-10-26T18:44:37.011Z,31.20
2022-10-26T18:47:03.804Z,17.80
2022-10-26T18:49:30.482Z,34.95
2022-10-26T18:51:57.195Z,34.90
2022-10-26T18:54:26.146Z,16.92
2022-10-26T18:56:53.929Z,20.08
2022-10-26T18:59:20.613Z,28.70
2022-10-26T19:01:47.431Z,25.25
2022-10-26T19:04:14.888Z,33.55
2022-10-26T19:06:48.319Z,41.78
2022-10-26T19:09:15.911Z,26.77
2022-10-26T19:11:42.612Z,22.63
2022-10-26T19:14:09.710Z,40.13
2022-10-26T19:16:51.894Z,28.88
2022-10-26T19:19:19.311Z,24.13
2022-10-26T19:21:49.576Z,19.80
2022-10-26T19:24:18.143Z,55.72
2022-10-26T19:26:44.908Z,64.03
2022-10-26T19:29:12.815Z,108.75
2022-10-26T19:31:39.539Z,92.90
2022-10-26T19:34:06.288Z,56.85
2022-10-26T19:36:33.406Z,76.38
2022-10-26T19:39:00.262Z,60.50
2022-10-26T19:41:26.938Z,81.45
2022-10-26T19:43:54.363Z,213.05
2022-10-26T19:46:22.556Z,210.07
2022-10-26T19:48:59.086Z,291.25
2022-10-26T19:51:26.910Z,314.67
2022-10-26T19:53:53.764Z,85.40
2022-10-26T19:56:21.802Z,141.18
2022-10-26T19:58:48.609Z,179.10
2022-10-26T20:01:15.459Z,129.68
2022-10-26T20:03:42.162Z,66.53
2022-10-26T20:06:09.764Z,121.55
2022-10-26T20:08:36.548Z,83.22
2022-10-26T20:11:03.742Z,87.30
2022-10-26T20:13:30.488Z,132.05
2022-10-26T20:15:57.194Z,193.38
2022-10-26T20:18:23.946Z,110.00
2022-10-26T20:20:50.671Z,86.78
2022-10-26T20:23:17.335Z,74.15
2022-10-26T20:25:45.779Z,45.38
2022-10-26T20:28:12.423Z,36.95
2022-10-26T20:30:39.167Z,32.10
2022-10-26T20:33:06.422Z,42.42
2022-10-26T20:35:33.134Z,35.13
2022-10-26T20:38:00.269Z,24.92
2022-10-26T20:40:27.449Z,29.58
2022-10-26T20:42:54.935Z,16.83
2022-10-26T20:45:30.240Z,27.40
2022-10-26T20:47:57.415Z,23.67
2022-10-26T20:50:25.325Z,18.48
2022-10-26T20:52:57.288Z,18.70
2022-10-26T20:56:01.102Z,9.80
2022-10-26T20:58:47.169Z,27.42
2022-10-26T21:01:33.783Z,34.30
2022-10-26T21:04:01.693Z,29.52
2022-10-26T21:06:28.592Z,15.38
2022-10-26T21:08:56.134Z,15.13
2022-10-26T21:11:24.104Z,9.93
2022-10-26T21:13:51.991Z,19.95
2022-10-26T21:16:18.724Z,23.95
2022-10-26T21:18:45.450Z,12.68
2022-10-26T21:21:12.136Z,25.45
2022-10-26T21:23:39.537Z,9.43
2022-10-26T21:26:06.661Z,13.38
2022-10-26T21:28:35.012Z,13.00
2022-10-26T21:31:05.696Z,9.85
2022-10-26T21:33:32.441Z,13.82
2022-10-26T21:36:00.012Z,9.60
2022-10-26T21:38:27.653Z,10.35
2022-10-26T21:41:10.983Z,14.38
2022-10-26T21:43:38.776Z,11.18
2022-10-26T21:46:05.771Z,8.70
2022-10-26T21:48:32.976Z,23.92
2022-10-26T21:51:01.770Z,8.57
2022-10-26T21:53:28.462Z,13.85
2022-10-26T21:56:06.061Z,13.15
2022-10-26T21:58:32.736Z,8.75
2022-10-26T22:01:09.690Z,19.20
2022-10-26T22:03:36.610Z,23.83
2022-10-26T22:06:03.605Z,19.63
2022-10-26T22:08:30.547Z,13.18
2022-10-26T22:10:57.242Z,17.90
2022-10-26T22:13:23.923Z,7.15
2022-10-26T22:16:10.603Z,10.63
2022-10-26T22:18:38.116Z,21.38
2022-10-26T22:21:05.152Z,8.38
2022-10-26T22:23:35.938Z,18.77
2022-10-26T22:26:06.957Z,12.63
2022-10-26T22:28:40.030Z,10.25
2022-10-26T22:31:11.058Z,19.00
2022-10-26T22:33:37.770Z,8.95
2022-10-26T22:36:14.268Z,13.55
2022-10-26T22:38:41.106Z,13.43
2022-10-26T22:41:08.003Z,15.02
2022-10-26T22:43:34.656Z,23.80
2022-10-26T22:46:10.109Z,9.18
2022-10-26T22:48:36.921Z,8.30
2022-10-26T22:51:07.762Z,15.18
2022-10-26T22:53:34.435Z,7.95
2022-10-26T22:56:01.784Z,8.10
2022-10-26T22:58:29.645Z,11.52
2022-10-26T23:01:26.752Z,23.77
2022-10-26T23:03:54.033Z,6.93
2022-10-26T23:06:20.783Z,14.38
2022-10-26T23:08:47.647Z,6.70
2022-10-26T23:11:16.104Z,4.53
2022-10-26T23:13:43.025Z,8.23
2022-10-26T23:16:14.032Z,8.05
2022-10-26T23:18:40.884Z,13.95
2022-10-26T23:21:08.258Z,25.00
2022-10-26T23:23:35.305Z,12.32
2022-10-26T23:26:06.098Z,6.60
2022-10-26T23:28:33.466Z,6.82
2022-10-26T23:31:00.189Z,7.57
2022-10-26T23:33:26.832Z,12.15
2022-10-26T23:35:53.578Z,11.05
2022-10-26T23:38:20.301Z,6.43
2022-10-26T23:40:58.950Z,3.40
2022-10-26T23:43:26.384Z,8.05
2022-10-26T23:45:53.613Z,22.27
2022-10-26T23:48:20.440Z,6.15
2022-10-26T23:50:48.057Z,2.45
2022-10-26T23:53:15.364Z,9.02
2022-10-26T23:55:43.509Z,8.23
2022-10-26T23:58:10.313Z,7.82
